Time;durP1;ratioP1;P1;durP2;ratioP2;P2;SDS_P1;SDS_P2;PMS_P1;PMS_P2;Temp;Humidity;BMP_temperature;BMP_pressure;BME280_temperature;BME280_humidity;BME280_pressure;Samples;Min_cycle;Max_cycle;Signal;HPM_P1;HPM_P2
2021/05/27 00:00:24;;;;;;;7.85;4.03;;;;;;;18.20;58.88;100393.44;5045387;28;20067;-74
2021/05/27 00:02:51;;;;;;;5.00;3.38;;;;;;;18.35;58.78;100393.19;5025576;28;20044;-74
2021/05/27 00:05:18;;;;;;;7.72;3.33;;;;;;;18.28;59.06;100393.69;5045158;28;20595;-74
2021/05/27 00:07:46;;;;;;;16.52;4.35;;;;;;;18.42;58.36;100395.22;5045525;28;20537;-74
2021/05/27 00:10:17;;;;;;;5.72;2.92;;;;;;;18.19;59.71;100402.31;5048195;28;20037;-74
2021/05/27 00:12:45;;;;;;;6.18;2.65;;;;;;;18.18;59.22;100399.81;5048498;28;20041;-74
2021/05/27 00:15:13;;;;;;;6.82;3.17;;;;;;;18.12;59.85;100393.22;5049029;28;20041;-74
2021/05/27 00:17:40;;;;;;;9.52;2.95;;;;;;;18.09;59.65;100398.75;5047696;28;20128;-74
2021/05/27 00:20:10;;;;;;;5.35;2.72;;;;;;;18.10;59.43;100397.78;5047718;28;20124;-74
2021/05/27 00:22:38;;;;;;;6.43;2.55;;;;;;;18.15;58.65;100397.41;5049009;28;20053;-73
2021/05/27 00:25:06;;;;;;;4.50;2.50;;;;;;;18.04;59.32;100400.91;5034003;28;20040;-74
2021/05/27 00:27:40;;;;;;;5.85;3.00;;;;;;;17.96;58.53;100392.75;5047722;28;20120;-74
2021/05/27 00:30:08;;;;;;;6.55;2.65;;;;;;;18.14;57.75;100393.09;5047370;28;20119;-73
2021/05/27 00:32:35;;;;;;;6.28;2.83;;;;;;;18.20;57.14;100385.53;5046977;28;20056;-74
2021/05/27 00:35:03;;;;;;;4.88;2.63;;;;;;;18.16;56.79;100389.38;5049060;28;20132;-74
2021/05/27 00:37:30;;;;;;;5.45;3.25;;;;;;;18.14;56.30;100388.66;5048182;28;21371;-74
2021/05/27 00:39:57;;;;;;;11.98;2.80;;;;;;;18.18;55.63;100382.19;5029452;28;20045;-72
2021/05/27 00:42:24;;;;;;;7.68;2.53;;;;;;;18.19;55.17;100386.50;5048480;28;20407;-74
2021/05/27 00:45:03;;;;;;;10.35;2.92;;;;;;;18.10;56.07;100378.47;5048606;28;20037;-74
2021/05/27 00:47:30;;;;;;;4.95;2.47;;;;;;;18.03;56.06;100389.50;5048174;28;20419;-74
2021/05/27 00:49:57;;;;;;;5.40;2.67;;;;;;;18.03;56.79;100383.41;5044086;28;20048;-72
2021/05/27 00:52:24;;;;;;;5.72;3.28;;;;;;;18.01;57.54;100380.88;5048039;28;20398;-74
2021/05/27 00:54:53;;;;;;;5.10;2.65;;;;;;;17.98;57.90;100381.13;5045133;28;20048;-74
2021/05/27 00:57:31;;;;;;;7.95;3.97;;;;;;;18.02;56.83;100382.56;5048675;28;20071;-74
2021/05/27 01:00:00;;;;;;;5.78;3.13;;;;;;;17.98;57.63;100378.47;5029715;28;20095;-73
2021/05/27 01:02:28;;;;;;;7.05;2.72;;;;;;;17.92;57.82;100378.13;5028841;28;20096;-74
2021/05/27 01:04:55;;;;;;;5.82;3.35;;;;;;;17.83;58.10;100384.13;5048115;28;20120;-74
2021/05/27 01:07:23;;;;;;;6.50;2.70;;;;;;;17.69;58.61;100380.75;5030172;28;20037;-73
2021/05/27 01:09:51;;;;;;;4.60;2.53;;;;;;;17.62;59.29;100384.78;5046089;28;20049;-73
2021/05/27 01:12:19;;;;;;;7.55;3.15;;;;;;;17.59;59.67;100374.50;5043351;28;20110;-74
2021/05/27 01:17:36;;;;;;;4.90;2.97;;;;;;;17.47;60.43;100380.69;5047448;28;20045;-74
2021/05/27 01:20:09;;;;;;;3.42;2.55;;;;;;;17.52;60.17;100382.03;5046183;28;20053;-73
2021/05/27 01:22:37;;;;;;;7.70;3.00;;;;;;;17.72;58.15;100379.66;5021352;28;20049;-73
2021/05/27 01:25:06;;;;;;;5.43;1.98;;;;;;;17.70;57.99;100378.94;5047504;28;20067;-74
2021/05/27 01:27:35;;;;;;;8.52;3.22;;;;;;;17.70;57.61;100377.13;5047084;28;20049;-74
2021/05/27 01:30:06;;;;;;;3.88;2.75;;;;;;;17.80;57.53;100382.56;5047144;28;20071;-73
2021/05/27 01:32:35;;;;;;;11.43;3.95;;;;;;;17.72;57.82;100371.75;5029007;28;20045;-74
2021/05/27 01:35:04;;;;;;;8.43;3.67;;;;;;;17.53;58.73;100367.06;5047691;28;20176;-73
2021/05/27 01:37:32;;;;;;;6.90;3.70;;;;;;;17.41;58.80;100370.63;5029474;28;20039;-74
2021/05/27 01:40:01;;;;;;;6.85;3.45;;;;;;;17.53;58.64;100357.38;5047237;28;20049;-70
2021/05/27 01:42:28;;;;;;;7.00;3.17;;;;;;;17.44;59.18;100362.50;5029683;28;20041;-72
2021/05/27 01:44:55;;;;;;;9.45;4.25;;;;;;;17.41;59.53;100360.91;5029820;28;20044;-72
2021/05/27 01:47:23;;;;;;;8.45;3.28;;;;;;;17.35;60.00;100365.81;5028267;28;20036;-72
2021/05/27 01:49:50;;;;;;;7.82;2.53;;;;;;;17.44;59.26;100354.59;5029549;28;20056;-73
2021/05/27 01:52:17;;;;;;;7.03;3.88;;;;;;;17.45;58.69;100356.25;5047332;28;20041;-72
2021/05/27 01:54:46;;;;;;;6.63;2.97;;;;;;;17.40;59.34;100358.41;5029381;28;20127;-73
2021/05/27 01:57:13;;;;;;;8.60;3.53;;;;;;;17.33;59.89;100357.22;5047021;28;20037;-73
2021/05/27 01:59:42;;;;;;;5.45;3.42;;;;;;;17.22;60.19;100356.22;5029400;28;20064;-73
2021/05/27 02:02:11;;;;;;;7.10;3.97;;;;;;;17.33;59.81;100354.56;5045097;28;20073;-73
2021/05/27 02:04:41;;;;;;;4.80;3.45;;;;;;;17.37;59.71;100358.66;5045019;28;20072;-74
2021/05/27 02:07:10;;;;;;;9.13;3.75;;;;;;;17.32;59.91;100355.53;5046800;28;20067;-74
2021/05/27 02:09:37;;;;;;;5.95;3.72;;;;;;;17.33;60.06;100359.84;5028572;28;20433;-74
2021/05/27 02:12:05;;;;;;;8.88;4.00;;;;;;;17.10;60.97;100357.16;5046847;28;20491;-74
2021/05/27 02:14:33;;;;;;;7.75;3.65;;;;;;;17.31;60.25;100359.09;5046509;28;20395;-73
2021/05/27 02:17:00;;;;;;;7.07;4.57;;;;;;;17.13;61.14;100353.44;5046856;28;20041;-73
2021/05/27 02:19:27;;;;;;;6.13;3.15;;;;;;;17.10;61.36;100356.31;5043777;28;20048;-71
2021/05/27 02:21:54;;;;;;;7.05;3.83;;;;;;;17.10;61.10;100353.66;5046646;28;20051;-72
2021/05/27 02:24:41;;;;;;;8.55;4.55;;;;;;;16.89;62.01;100348.25;5046283;28;20512;-72
2021/05/27 02:27:11;;;;;;;10.15;4.47;;;;;;;17.03;61.67;100351.50;5032212;28;20059;-73
2021/05/27 02:29:39;;;;;;;14.73;4.65;;;;;;;16.99;61.46;100349.22;5045267;28;20047;-72
2021/05/27 02:32:10;;;;;;;8.13;5.18;;;;;;;17.03;61.60;100353.28;5048632;28;20045;-72
2021/05/27 02:34:37;;;;;;;7.55;4.05;;;;;;;16.92;61.49;100348.00;5027917;28;20589;-71
2021/05/27 02:37:04;;;;;;;6.90;4.63;;;;;;;16.74;62.25;100350.22;5046639;28;20064;-72
2021/05/27 02:39:37;;;;;;;7.57;4.20;;;;;;;16.66;62.53;100352.53;5028394;28;20488;-72
2021/05/27 02:42:05;;;;;;;6.50;4.40;;;;;;;16.44;63.48;100354.09;5028334;28;20094;-72
2021/05/27 02:44:34;;;;;;;8.43;4.55;;;;;;;16.53;63.34;100352.59;5044952;28;20515;-72
2021/05/27 02:47:02;;;;;;;5.85;4.90;;;;;;;16.48;64.07;100354.72;5045794;28;20510;-72
2021/05/27 02:49:30;;;;;;;8.40;5.30;;;;;;;16.54;64.11;100358.69;5043324;28;20038;-72
2021/05/27 02:52:00;;;;;;;6.47;5.18;;;;;;;16.46;64.20;100346.13;5045848;28;20047;-72
2021/05/27 02:54:29;;;;;;;9.40;6.88;;;;;;;16.72;63.19;100342.44;5028649;28;20049;-72
2021/05/27 02:56:59;;;;;;;6.95;5.90;;;;;;;16.73;62.99;100340.66;5046287;28;20098;-73
2021/05/27 02:59:30;;;;;;;8.03;6.50;;;;;;;16.48;64.66;100345.03;5041301;28;20099;-72
2021/05/27 03:01:59;;;;;;;15.50;6.78;;;;;;;16.64;64.38;100343.91;5046149;28;20372;-72
2021/05/27 03:04:26;;;;;;;10.75;5.50;;;;;;;16.58;63.99;100341.75;5025351;28;20037;-73
2021/05/27 03:06:55;;;;;;;13.73;6.28;;;;;;;16.60;64.38;100343.28;5027814;28;20048;-72
2021/05/27 03:09:22;;;;;;;6.75;5.10;;;;;;;16.61;64.32;100344.97;5046545;28;20033;-72
2021/05/27 03:11:53;;;;;;;13.75;6.32;;;;;;;16.67;63.64;100348.94;5045690;28;20532;-72
2021/05/27 03:14:21;;;;;;;10.20;5.32;;;;;;;16.69;63.89;100341.78;5028056;28;20132;-71
2021/05/27 03:16:59;;;;;;;6.50;5.30;;;;;;;16.61;63.29;100334.44;5026929;28;20075;-72
2021/05/27 03:19:26;;;;;;;8.95;6.57;;;;;;;16.54;64.15;100338.47;5046404;28;20098;-75
2021/05/27 03:21:56;;;;;;;12.45;5.97;;;;;;;16.50;63.59;100340.50;5027912;28;20043;-73
2021/05/27 03:24:23;;;;;;;9.60;6.80;;;;;;;16.57;63.98;100338.28;5050057;28;20045;-73
2021/05/27 03:26:53;;;;;;;13.23;6.30;;;;;;;16.59;63.33;100335.53;5035208;28;20059;-73
2021/05/27 03:29:23;;;;;;;8.77;5.60;;;;;;;16.57;62.80;100332.16;5034973;28;20049;-74
2021/05/27 03:31:50;;;;;;;6.97;4.82;;;;;;;16.55;63.02;100334.91;5052373;28;20049;-74
2021/05/27 03:34:18;;;;;;;9.73;6.05;;;;;;;16.50;63.83;100345.75;5052675;28;20135;-74
2021/05/27 03:36:45;;;;;;;7.28;4.68;;;;;;;16.52;63.57;100335.13;5052475;28;20065;-74
2021/05/27 03:39:15;;;;;;;14.80;5.72;;;;;;;16.54;62.54;100341.13;5047823;28;20055;-75
2021/05/27 03:41:42;;;;;;;8.48;6.03;;;;;;;16.57;62.90;100342.69;5050775;28;20128;-74
2021/05/27 03:44:10;;;;;;;14.23;4.97;;;;;;;16.55;62.67;100349.84;5051606;28;20045;-74
2021/05/27 03:46:43;;;;;;;10.73;5.10;;;;;;;16.56;62.68;100351.53;5055615;28;20082;-73
2021/05/27 03:49:10;;;;;;;7.38;4.05;;;;;;;16.38;63.57;100354.53;5037714;28;20040;-70
2021/05/27 03:51:37;;;;;;;15.27;5.68;;;;;;;16.33;63.90;100354.03;5054616;28;20513;-68
2021/05/27 03:54:05;;;;;;;12.07;6.07;;;;;;;16.43;63.93;100359.47;5055284;28;20503;-68
2021/05/27 03:56:34;;;;;;;9.93;6.05;;;;;;;16.35;64.14;100356.56;5054377;28;20136;-68
2021/05/27 04:02:07;;;;;;;12.23;6.38;;;;;;;16.45;64.19;100355.78;5050443;28;20053;-68
2021/05/27 04:07:29;;;;;;;18.23;7.65;;;;;;;16.37;64.64;100359.94;5055534;28;20441;-67
2021/05/27 04:09:56;;;;;;;10.65;7.25;;;;;;;16.28;64.79;100357.94;5054647;28;20041;-68
2021/05/27 04:15:28;;;;;;;10.18;6.68;;;;;;;16.29;65.08;100360.47;5055325;28;20045;-67
2021/05/27 04:17:56;;;;;;;9.38;6.85;;;;;;;16.29;65.05;100364.88;5054013;28;20103;-68
2021/05/27 04:20:27;;;;;;;7.82;6.57;;;;;;;16.14;66.31;100367.69;5055234;28;21008;-67
2021/05/27 04:22:54;;;;;;;10.05;6.25;;;;;;;16.30;65.71;100367.44;5055258;28;20488;-67
2021/05/27 04:25:23;;;;;;;6.82;5.63;;;;;;;16.49;64.72;100370.38;5054457;28;20037;-67
2021/05/27 04:27:50;;;;;;;12.60;6.57;;;;;;;16.53;64.96;100368.38;5054677;28;20044;-68
2021/05/27 04:30:19;;;;;;;12.07;6.38;;;;;;;16.43;65.04;100365.59;5037369;28;20045;-68
2021/05/27 04:35:41;;;;;;;16.02;6.10;;;;;;;16.62;64.88;100372.13;5055205;28;20064;-67
2021/05/27 04:38:13;;;;;;;12.05;7.63;;;;;;;16.55;65.26;100366.47;5054774;28;20557;-68
2021/05/27 04:40:43;;;;;;;9.80;6.63;;;;;;;16.53;64.94;100373.66;5054120;28;20080;-68
2021/05/27 04:43:10;;;;;;;11.50;6.55;;;;;;;16.61;64.90;100373.06;5054722;28;20064;-67
2021/05/27 04:45:38;;;;;;;14.00;7.15;;;;;;;16.56;65.21;100373.41;5054682;28;20116;-68
2021/05/27 04:48:09;;;;;;;9.95;6.82;;;;;;;16.60;65.90;100372.25;5054038;28;20132;-68
2021/05/27 04:50:37;;;;;;;6.93;5.65;;;;;;;16.69;65.43;100373.38;5054866;28;20045;-68
2021/05/27 04:53:06;;;;;;;10.38;5.93;;;;;;;16.82;64.87;100373.31;5054511;28;20128;-67
2021/05/27 04:55:33;;;;;;;14.38;4.93;;;;;;;17.02;63.28;100370.06;5054097;28;20415;-68
2021/05/27 04:58:00;;;;;;;14.05;5.22;;;;;;;17.29;62.68;100375.88;5054415;28;20128;-68
2021/05/27 05:00:28;;;;;;;7.43;4.30;;;;;;;17.48;62.00;100367.41;5054498;28;20052;-68
2021/05/27 05:02:56;;;;;;;10.23;4.95;;;;;;;17.60;61.26;100367.44;5053408;28;20162;-68
2021/05/27 05:05:26;;;;;;;11.38;4.43;;;;;;;17.76;60.55;100370.59;5054357;28;20128;-67
2021/05/27 05:07:54;;;;;;;9.32;4.68;;;;;;;17.92;59.98;100365.78;5054528;28;20045;-69
2021/05/27 05:10:23;;;;;;;6.60;3.60;;;;;;;18.21;59.34;100376.66;5053719;28;20428;-73
2021/05/27 05:12:50;;;;;;;5.72;3.25;;;;;;;18.51;57.14;100368.06;5035745;28;20115;-67
2021/05/27 05:15:25;;;;;;;4.47;3.05;;;;;;;18.91;55.99;100374.56;5052665;28;20495;-68
2021/05/27 05:18:02;;;;;;;10.00;3.15;;;;;;;19.00;52.96;100366.72;5050344;28;20440;-66
2021/05/27 05:20:31;;;;;;;9.90;3.00;;;;;;;19.33;53.25;100371.00;5049079;28;20068;-65
2021/05/27 05:22:59;;;;;;;9.13;3.72;;;;;;;19.36;54.44;100373.34;5050496;28;20037;-64
2021/05/27 05:25:28;;;;;;;11.00;4.10;;;;;;;19.16;56.05;100376.00;5052063;28;20047;-67
2021/05/27 05:27:56;;;;;;;10.13;4.03;;;;;;;19.20;56.20;100380.91;5052745;28;20102;-66
2021/05/27 05:30:26;;;;;;;9.18;5.18;;;;;;;19.44;56.16;100385.06;5053208;28;20491;-66
2021/05/27 05:32:54;;;;;;;13.88;4.95;;;;;;;19.85;54.91;100378.94;5052908;28;20041;-69
2021/05/27 05:35:21;;;;;;;11.40;4.68;;;;;;;20.10;52.72;100385.56;5053140;28;20075;-68
2021/05/27 05:37:49;;;;;;;9.45;4.88;;;;;;;20.20;51.80;100386.44;5053445;28;20460;-69
2021/05/27 05:40:17;;;;;;;7.20;4.22;;;;;;;20.55;51.76;100380.66;5052021;28;20045;-65
2021/05/27 05:42:45;;;;;;;6.35;3.63;;;;;;;21.17;50.40;100375.94;5051741;28;20064;-65
2021/05/27 05:45:16;;;;;;;8.70;3.45;;;;;;;21.43;48.54;100386.81;5053303;28;20095;-67
2021/05/27 05:47:48;;;;;;;6.88;2.78;;;;;;;21.67;46.99;100381.00;5048087;28;20511;-72
2021/05/27 05:50:45;;;;;;;5.13;2.75;;;;;;;22.06;46.65;100372.91;5053168;28;20045;-72
2021/05/27 05:53:05;;;;;;;5.47;2.65;;;;;;;22.25;45.34;100377.28;5052304;28;20041;-72
2021/05/27 05:55:32;;;;;;;5.88;3.55;;;;;;;22.28;44.28;100383.16;5052890;28;20039;-68
2021/05/27 05:58:00;;;;;;;5.95;2.80;;;;;;;22.58;43.71;100374.00;5046898;28;20111;-69
2021/05/27 06:00:28;;;;;;;7.78;3.15;;;;;;;22.85;42.60;100375.75;5052554;28;20037;-68
2021/05/27 06:02:55;;;;;;;5.05;1.95;;;;;;;23.10;42.34;100373.31;5050539;28;20083;-68
2021/05/27 06:06:00;;;;;;;;;;;;;;;23.53;39.92;100370.63;4989968;28;20070;-74
2021/05/27 06:08:40;;;;;;;2.83;2.17;;;;;;;23.89;38.54;100365.19;4971149;28;20083;-76
2021/05/27 06:11:07;;;;;;;5.07;1.80;;;;;;;23.90;37.28;100377.50;5018445;28;20068;-73
2021/05/27 06:13:34;;;;;;;5.45;2.13;;;;;;;24.20;35.87;100377.97;5052252;28;20113;-73
2021/05/27 06:16:01;;;;;;;11.18;2.40;;;;;;;24.19;36.53;100384.28;5052375;28;20127;-72
2021/05/27 06:18:28;;;;;;;4.50;1.63;;;;;;;24.78;36.11;100388.63;5051761;28;20049;-73
2021/05/27 06:21:22;;;;;;;4.87;1.67;;;;;;;25.11;34.33;100377.97;5036303;28;20120;-70
2021/05/27 06:23:51;;;;;;;6.35;1.98;;;;;;;25.34;33.57;100384.28;5051477;28;20295;-71
2021/05/27 06:26:18;;;;;;;6.70;2.63;;;;;;;25.44;33.52;100388.63;5052738;28;20392;-72
2021/05/27 06:28:45;;;;;;;5.85;1.88;;;;;;;25.64;32.70;100389.91;5052392;28;20064;-72
2021/05/27 06:31:12;;;;;;;4.70;1.60;;;;;;;25.83;31.78;100388.72;5053101;28;20422;-73
2021/05/27 06:33:39;;;;;;;3.78;1.63;;;;;;;26.00;31.37;100382.31;5031820;28;20083;-72
2021/05/27 06:36:06;;;;;;;2.85;1.90;;;;;;;26.30;30.53;100395.84;5046104;28;20052;-72
2021/05/27 06:38:34;;;;;;;2.53;1.42;;;;;;;26.38;30.67;100399.34;5046080;28;20045;-72
2021/05/27 06:41:01;;;;;;;1.70;1.10;;;;;;;26.53;30.04;100404.81;5046142;28;20131;-73
2021/05/27 06:43:28;;;;;;;10.30;1.80;;;;;;;26.46;29.79;100393.13;5046329;28;20503;-73
2021/05/27 06:45:56;;;;;;;3.95;1.88;;;;;;;26.59;29.78;100397.91;5046075;28;21936;-73
2021/05/27 06:48:23;;;;;;;6.13;2.20;;;;;;;26.59;30.80;100411.28;5046661;28;20041;-73
2021/05/27 06:50:51;;;;;;;4.18;1.92;;;;;;;26.84;30.06;100404.72;5046264;28;20052;-73
2021/05/27 06:53:19;;;;;;;6.05;2.47;;;;;;;26.78;30.48;100405.44;5046774;28;20041;-73
2021/05/27 06:55:47;;;;;;;5.38;1.80;;;;;;;26.96;30.47;100410.53;5045842;28;20040;-73
2021/05/27 06:58:16;;;;;;;5.60;2.67;;;;;;;27.13;30.52;100403.22;5046211;28;20067;-73
2021/05/27 07:00:42;;;;;;;9.93;3.15;;;;;;;27.77;30.18;100405.47;5046347;28;20028;-73
2021/05/27 07:03:11;;;;;;;6.35;2.15;;;;;;;28.30;29.39;100406.16;5047104;28;20033;-74
2021/05/27 07:05:38;;;;;;;9.43;2.05;;;;;;;28.44;27.81;100410.66;5046891;28;20559;-74
2021/05/27 07:08:07;;;;;;;4.57;1.83;;;;;;;28.07;27.57;100411.63;5045906;28;20120;-73
2021/05/27 07:10:34;;;;;;;4.57;1.40;;;;;;;28.26;27.75;100413.72;5045784;28;20072;-74
2021/05/27 07:13:07;;;;;;;5.43;1.27;;;;;;;27.77;28.12;100405.47;5044684;28;20056;-73
2021/05/27 07:15:35;;;;;;;4.65;1.80;;;;;;;27.74;28.19;100395.09;5044575;28;20091;-73
2021/05/27 07:18:03;;;;;;;3.67;1.20;;;;;;;27.25;28.77;100396.41;5045761;28;20123;-73
2021/05/27 07:20:30;;;;;;;4.00;1.33;;;;;;;27.68;29.09;100396.66;5048900;28;20557;-73
2021/05/27 07:22:57;;;;;;;7.63;2.15;;;;;;;27.85;27.04;100398.16;5049747;28;20033;-73
2021/05/27 07:25:26;;;;;;;5.82;1.98;;;;;;;27.96;27.97;100399.53;5050049;28;20553;-73
2021/05/27 07:27:55;;;;;;;6.40;2.75;;;;;;;26.88;28.17;100403.38;5049573;28;20044;-73
2021/05/27 07:30:27;;;;;;;4.90;1.50;;;;;;;27.97;27.97;100397.72;5050360;28;20064;-73
2021/05/27 07:32:58;;;;;;;5.45;1.73;;;;;;;28.27;27.48;100395.81;5049890;28;20037;-70
2021/05/27 07:35:26;;;;;;;9.52;2.80;;;;;;;28.14;28.20;100408.03;5050950;28;20095;-72
2021/05/27 07:37:55;;;;;;;5.35;2.38;;;;;;;28.55;28.14;100410.19;5032421;28;20115;-73
2021/05/27 07:40:24;;;;;;;3.85;1.95;;;;;;;29.31;27.17;100402.47;5049888;28;20663;-72
2021/05/27 07:42:51;;;;;;;6.03;1.83;;;;;;;28.93;27.66;100405.44;5049626;28;20159;-72
2021/05/27 07:45:18;;;;;;;5.95;1.85;;;;;;;28.79;27.19;100411.66;5049770;28;20045;-72
2021/05/27 07:47:46;;;;;;;12.55;2.15;;;;;;;28.43;28.34;100406.34;5049677;28;20491;-72
2021/05/27 07:50:13;;;;;;;9.73;2.50;;;;;;;28.62;28.36;100410.25;5049220;28;20119;-73
2021/05/27 07:52:40;;;;;;;4.03;2.70;;;;;;;28.70;27.89;100402.91;5032685;28;20045;-72
2021/05/27 07:55:08;;;;;;;10.10;2.97;;;;;;;28.73;28.40;100400.88;5047991;28;20049;-71
2021/05/27 07:57:35;;;;;;;5.68;2.92;;;;;;;28.92;27.94;100405.59;5047935;28;20463;-70
2021/05/27 08:00:06;;;;;;;10.70;2.65;;;;;;;28.65;28.63;100408.00;5047863;28;20037;-67
2021/05/27 08:02:38;;;;;;;7.72;2.53;;;;;;;28.63;27.46;100410.06;5049312;28;20052;-69
2021/05/27 08:05:06;;;;;;;11.25;4.28;;;;;;;29.27;27.77;100395.00;5049369;28;20045;-69
2021/05/27 08:07:33;;;;;;;16.77;4.18;;;;;;;29.32;27.08;100396.06;5049479;28;20055;-68
2021/05/27 08:10:01;;;;;;;5.10;2.08;;;;;;;28.69;27.69;100395.06;5049040;28;20045;-68
2021/05/27 08:12:27;;;;;;;5.95;2.72;;;;;;;28.55;27.50;100399.47;5048947;28;20033;-67
2021/05/27 08:14:54;;;;;;;6.03;3.05;;;;;;;28.86;27.47;100390.25;5030922;28;20059;-66
2021/05/27 08:17:21;;;;;;;7.18;3.22;;;;;;;29.07;26.40;100381.41;5048825;28;20120;-68
2021/05/27 08:19:48;;;;;;;7.45;2.75;;;;;;;28.89;27.08;100389.91;5048414;28;20132;-67
2021/05/27 08:22:16;;;;;;;6.00;2.65;;;;;;;29.42;27.31;100380.44;5049504;28;20033;-66
2021/05/27 08:24:44;;;;;;;18.98;4.63;;;;;;;28.97;26.80;100381.72;5048684;28;20128;-69
2021/05/27 08:27:11;;;;;;;15.55;3.80;;;;;;;29.30;27.19;100382.00;5048656;28;20068;-69
2021/05/27 08:29:38;;;;;;;7.07;3.17;;;;;;;29.39;26.59;100378.13;5031879;28;20140;-69
2021/05/27 08:32:06;;;;;;;11.75;2.90;;;;;;;29.07;27.75;100376.84;5049651;28;20112;-69
2021/05/27 08:34:33;;;;;;;5.85;2.60;;;;;;;28.72;27.00;100383.97;5049603;28;20040;-69
2021/05/27 08:37:00;;;;;;;8.63;2.88;;;;;;;28.47;27.47;100385.34;5048501;28;20530;-69
2021/05/27 08:39:30;;;;;;;12.65;4.15;;;;;;;28.97;27.13;100387.91;5030527;28;20045;-69
2021/05/27 08:41:57;;;;;;;8.93;2.67;;;;;;;27.86;28.05;100388.28;5048313;28;20043;-65
2021/05/27 08:44:24;;;;;;;7.45;3.47;;;;;;;28.53;27.69;100393.44;5048836;28;20057;-65
2021/05/27 08:46:51;;;;;;;5.50;2.22;;;;;;;29.06;27.86;100388.63;5047210;28;20037;-65
2021/05/27 08:49:18;;;;;;;8.10;4.05;;;;;;;28.49;27.93;100381.44;5048702;28;20068;-65
2021/05/27 08:51:46;;;;;;;4.68;2.70;;;;;;;28.81;26.68;100374.75;5048721;28;20045;-65
2021/05/27 08:54:12;;;;;;;4.85;2.80;;;;;;;28.67;27.42;100381.84;5048247;28;20051;-65
2021/05/27 08:56:39;;;;;;;13.70;2.95;;;;;;;27.98;28.60;100377.94;5048551;28;20045;-65
2021/05/27 08:59:06;;;;;;;7.47;2.50;;;;;;;28.15;28.57;100384.75;5048030;28;20052;-65
2021/05/27 09:01:33;;;;;;;9.32;3.35;;;;;;;28.06;28.68;100385.84;5048351;28;20126;-65
2021/05/27 09:04:02;;;;;;;5.03;2.65;;;;;;;27.24;29.20;100383.22;5046746;28;20060;-65
2021/05/27 09:06:29;;;;;;;6.82;2.20;;;;;;;27.19;29.63;100385.59;5046863;28;20064;-65
2021/05/27 09:09:05;;;;;;;4.57;2.50;;;;;;;26.92;30.03;100382.47;5048332;28;20045;-65
2021/05/27 09:11:37;;;;;;;6.45;2.70;;;;;;;26.46;30.50;100378.94;5047462;28;20056;-65
2021/05/27 09:14:05;;;;;;;4.97;2.22;;;;;;;26.72;31.38;100376.75;5047994;28;20048;-65
2021/05/27 09:16:32;;;;;;;10.95;5.38;;;;;;;26.54;30.64;100381.56;5047675;28;20140;-65
2021/05/27 09:19:19;;;;;;;4.95;2.65;;;;;;;26.57;30.16;100386.53;5048086;28;20349;-65
2021/05/27 09:21:46;;;;;;;6.03;2.90;;;;;;;26.54;30.75;100378.91;5046467;28;20119;-65
2021/05/27 09:24:13;;;;;;;5.55;2.75;;;;;;;26.42;30.16;100378.47;5047649;28;20102;-65
2021/05/27 09:26:54;;;;;;;8.13;2.22;;;;;;;26.72;30.46;100367.91;5048941;28;20495;-65
2021/05/27 09:29:22;;;;;;;7.78;2.40;;;;;;;26.20;30.99;100373.88;5029694;28;20047;-65
2021/05/27 09:31:57;;;;;;;5.28;2.60;;;;;;;26.27;30.65;100369.50;5047795;28;20072;-64
2021/05/27 09:34:46;;;;;;;6.15;2.50;;;;;;;26.53;30.54;100358.53;5047563;28;20037;-65
2021/05/27 09:37:29;;;;;;;6.97;2.50;;;;;;;26.31;29.74;100360.97;5047155;28;20110;-64
2021/05/27 09:40:02;;;;;;;4.50;2.75;;;;;;;25.86;31.01;100356.34;5047461;28;20036;-65
2021/05/27 09:42:29;;;;;;;6.55;2.70;;;;;;;25.66;29.85;100357.69;5046542;28;20041;-65
2021/05/27 09:44:56;;;;;;;7.22;2.80;;;;;;;25.79;30.21;100356.19;5048597;28;20040;-65
2021/05/27 09:47:34;;;;;;;5.82;2.75;;;;;;;26.04;29.63;100353.41;5048348;28;20033;-64
2021/05/27 09:50:08;;;;;;;4.43;2.03;;;;;;;26.21;30.90;100348.84;5047530;28;20047;-65
2021/05/27 09:52:42;;;;;;;9.05;3.00;;;;;;;25.82;30.42;100349.66;5047339;28;20044;-64
2021/05/27 09:55:12;;;;;;;4.05;2.55;;;;;;;25.63;30.75;100347.38;5046253;28;20402;-64
2021/05/27 09:57:41;;;;;;;4.70;2.65;;;;;;;25.85;31.00;100349.34;5047618;28;20037;-65
2021/05/27 10:00:29;;;;;;;7.38;3.35;;;;;;;25.65;30.65;100343.53;5047282;28;20040;-64
2021/05/27 10:02:56;;;;;;;6.68;2.92;;;;;;;25.92;30.92;100339.59;5048872;28;20048;-65
2021/05/27 10:05:23;;;;;;;8.27;3.28;;;;;;;25.68;31.53;100345.88;5047502;28;20517;-64
2021/05/27 10:07:52;;;;;;;8.95;4.32;;;;;;;25.85;31.15;100349.34;5047075;28;20045;-64
2021/05/27 10:10:44;;;;;;;14.63;4.25;;;;;;;25.36;31.28;100353.97;5045694;28;20044;-65
2021/05/27 10:13:16;;;;;;;11.02;2.88;;;;;;;25.44;31.40;100351.25;5045922;28;20091;-64
2021/05/27 10:15:44;;;;;;;6.60;3.65;;;;;;;25.31;31.51;100351.78;5046691;28;20053;-64
2021/05/27 10:18:16;;;;;;;7.88;2.78;;;;;;;25.24;32.83;100348.13;5046911;28;20160;-64
2021/05/27 10:20:44;;;;;;;8.52;3.30;;;;;;;25.05;33.48;100350.13;5045737;28;20072;-64
2021/05/27 10:23:11;;;;;;;5.75;3.65;;;;;;;25.08;32.64;100347.13;5046535;28;20581;-65
2021/05/27 10:25:39;;;;;;;6.75;3.20;;;;;;;25.15;33.07;100349.97;5047096;28;20049;-64
2021/05/27 10:28:10;;;;;;;12.43;4.00;;;;;;;24.76;33.18;100347.13;5046310;28;20059;-64
2021/05/27 10:30:40;;;;;;;15.02;4.95;;;;;;;25.07;33.85;100342.81;5046732;28;20148;-65
2021/05/27 10:33:14;;;;;;;7.70;3.80;;;;;;;25.01;32.94;100340.78;5046674;28;20500;-64
2021/05/27 10:35:51;;;;;;;4.65;3.65;;;;;;;24.52;33.35;100354.09;5046526;28;20086;-64
2021/05/27 10:41:10;;;;;;;8.75;3.45;;;;;;;24.80;33.90;100343.13;5045202;28;20041;-64
2021/05/27 10:44:03;;;;;;;8.27;4.00;;;;;;;24.70;33.90;100327.28;5046397;28;22518;-67
2021/05/27 10:46:53;;;;;;;8.10;3.75;;;;;;;24.79;34.43;100333.47;5046551;28;20040;-67
2021/05/27 10:49:42;;;;;;;10.23;4.55;;;;;;;24.65;34.34;100334.94;5045774;28;20452;-67
2021/05/27 10:52:27;;;;;;;11.80;3.72;;;;;;;24.79;34.39;100328.13;5045056;28;20404;-67
2021/05/27 10:54:54;;;;;;;7.80;3.60;;;;;;;24.81;33.60;100334.13;5046340;28;20041;-67
2021/05/27 10:57:39;;;;;;;10.00;4.03;;;;;;;24.85;33.78;100324.78;5045444;28;20479;-67
2021/05/27 11:00:19;;;;;;;14.20;3.67;;;;;;;24.96;34.12;100316.44;5046411;28;20037;-67
2021/05/27 11:02:46;;;;;;;15.30;3.70;;;;;;;24.96;34.13;100316.44;5045110;28;20087;-67
2021/05/27 11:05:17;;;;;;;10.77;3.58;;;;;;;25.10;34.32;100306.16;5046235;28;20116;-68
2021/05/27 11:08:21;;;;;;;9.45;3.13;;;;;;;25.10;34.29;100306.97;5045080;28;20120;-68
2021/05/27 11:10:49;;;;;;;7.75;3.75;;;;;;;24.93;34.88;100303.47;5044707;28;20514;-67
2021/05/27 11:13:16;;;;;;;8.80;3.20;;;;;;;24.82;35.05;100306.44;5046082;28;20041;-68
2021/05/27 11:16:03;;;;;;;9.20;3.30;;;;;;;24.81;35.02;100291.47;5045910;28;20399;-69
2021/05/27 11:18:32;;;;;;;6.50;3.83;;;;;;;24.81;34.66;100286.13;5045441;28;20052;-68
2021/05/27 11:21:42;;;;;;;11.07;4.40;;;;;;;24.86;34.60;100283.78;5046433;28;20045;-67
2021/05/27 11:27:30;;;;;;;9.00;4.40;;;;;;;24.75;34.53;100292.13;5049095;28;20076;-68
2021/05/27 11:30:26;;;;;;;8.40;3.83;;;;;;;24.81;34.49;100289.63;5005007;28;20064;-68
2021/05/27 11:32:56;;;;;;;9.20;3.58;;;;;;;24.92;34.77;100287.63;5050267;28;20124;-69
2021/05/27 11:35:25;;;;;;;10.43;3.92;;;;;;;25.03;35.88;100288.09;5050356;28;20592;-69
2021/05/27 11:37:53;;;;;;;9.15;4.35;;;;;;;25.11;35.97;100283.81;5050325;28;20052;-68
2021/05/27 11:40:24;;;;;;;12.32;4.57;;;;;;;25.16;35.50;100290.28;5051533;28;20080;-68
2021/05/27 11:42:52;;;;;;;8.68;4.82;;;;;;;24.82;35.91;100293.13;5052093;28;20496;-68
2021/05/27 11:45:22;;;;;;;5.93;3.72;;;;;;;24.88;35.35;100286.31;5052614;28;20128;-68
2021/05/27 11:48:26;;;;;;;11.10;4.75;;;;;;;24.75;34.42;100286.81;5047160;28;20076;-68
2021/05/27 11:51:02;;;;;;;8.02;3.55;;;;;;;24.80;35.03;100289.81;5045405;28;20132;-66
2021/05/27 11:53:55;;;;;;;7.93;4.25;;;;;;;24.98;34.43;100293.13;5045673;28;20116;-67
2021/05/27 11:56:54;;;;;;;8.30;3.47;;;;;;;25.03;33.71;100292.59;5045245;28;20410;-67
2021/05/27 11:59:28;;;;;;;6.78;3.15;;;;;;;25.10;33.59;100288.31;5024452;28;20049;-68